createdAt,value
2018-11-14T00:00:31.950Z,19.90
2018-11-14T00:03:01.860Z,16.70
2018-11-14T00:05:30.521Z,20.07
2018-11-14T00:07:59.271Z,20.73
2018-11-14T00:10:27.893Z,19.77
2018-11-14T00:12:56.509Z,21.73
2018-11-14T00:15:26.120Z,22.23
2018-11-14T00:17:54.887Z,22.03
2018-11-14T00:20:23.671Z,22.37
2018-11-14T00:22:52.572Z,21.20
2018-11-14T00:25:21.207Z,21.50
2018-11-14T00:27:49.933Z,19.90
2018-11-14T00:30:22.879Z,20.87
2018-11-14T00:32:51.550Z,22.27
2018-11-14T00:35:20.182Z,21.00
2018-11-14T00:37:49.296Z,20.87
2018-11-14T00:40:18.922Z,19.93
2018-11-14T00:42:48.003Z,19.93
2018-11-14T00:45:19.245Z,20.27
2018-11-14T00:47:48.647Z,20.40
2018-11-14T00:50:18.022Z,20.73
2018-11-14T00:52:46.936Z,19.70
2018-11-14T00:55:17.626Z,21.73
2018-11-14T00:57:47.293Z,21.17
2018-11-14T01:00:18.552Z,22.40
2018-11-14T01:02:47.320Z,23.07
2018-11-14T01:05:17.045Z,21.13
2018-11-14T01:07:45.771Z,21.30
2018-11-14T01:10:16.304Z,20.93
2018-11-14T01:12:45.625Z,22.97
2018-11-14T01:15:16.375Z,21.93
2018-11-14T01:17:45.020Z,21.57
2018-11-14T01:20:15.369Z,20.83
2018-11-14T01:22:44.560Z,22.73
2018-11-14T01:25:14.473Z,21.33
2018-11-14T01:27:44.007Z,21.40
2018-11-14T01:30:15.207Z,22.63
2018-11-14T01:32:44.857Z,21.17
2018-11-14T01:35:13.676Z,19.20
2018-11-14T01:37:42.344Z,20.13
2018-11-14T01:40:16.232Z,20.40
2018-11-14T01:42:46.949Z,18.47
2018-11-14T01:45:15.616Z,19.37
2018-11-14T01:47:44.354Z,18.37
2018-11-14T01:50:13.011Z,19.70
2018-11-14T01:52:41.651Z,18.50
2018-11-14T01:55:12.382Z,18.50
2018-11-14T01:57:41.028Z,17.87
2018-11-14T02:00:12.428Z,20.27
2018-11-14T02:02:41.171Z,19.20
2018-11-14T02:05:10.315Z,17.70
2018-11-14T02:07:38.947Z,20.17
2018-11-14T02:10:11.229Z,19.40
2018-11-14T02:12:40.487Z,18.77
2018-11-14T02:15:12.248Z,17.70
2018-11-14T02:17:41.755Z,14.87
2018-11-14T02:20:11.051Z,17.17
2018-11-14T02:22:40.035Z,16.03
2018-11-14T02:25:09.538Z,14.23
2018-11-14T02:27:38.147Z,13.13
2018-11-14T02:30:11.366Z,12.70
2018-11-14T02:32:40.132Z,14.20
2018-11-14T02:35:09.116Z,13.17
2018-11-14T02:37:38.197Z,16.10
2018-11-14T02:40:09.013Z,16.17
2018-11-14T02:42:38.668Z,15.13
2018-11-14T02:45:07.589Z,16.83
2018-11-14T02:47:36.219Z,18.23
2018-11-14T02:50:04.963Z,18.07
2018-11-14T02:52:33.607Z,19.00
2018-11-14T02:55:02.243Z,20.50
2018-11-14T02:57:30.893Z,20.57
2018-11-14T02:59:59.527Z,22.60
2018-11-14T03:02:28.165Z,20.60
2018-11-14T03:04:56.842Z,21.43
2018-11-14T03:07:25.461Z,21.63
2018-11-14T03:09:54.123Z,21.70
2018-11-14T03:12:22.881Z,22.73
2018-11-14T03:14:51.544Z,22.67
2018-11-14T03:17:20.187Z,23.47
2018-11-14T03:19:48.876Z,22.10
2018-11-14T03:22:17.505Z,23.53
2018-11-14T03:24:46.123Z,23.67
2018-11-14T03:27:14.837Z,25.27
2018-11-14T03:29:43.475Z,24.40
2018-11-14T03:32:12.133Z,23.57
2018-11-14T03:34:40.821Z,20.43
2018-11-14T03:37:09.445Z,22.13
2018-11-14T03:39:38.093Z,22.43
2018-11-14T03:42:06.783Z,22.03
2018-11-14T03:44:35.388Z,22.13
2018-11-14T03:47:04.079Z,19.97
2018-11-14T03:49:32.738Z,22.20
2018-11-14T03:52:01.381Z,21.20
2018-11-14T03:54:29.996Z,22.53
2018-11-14T03:56:58.693Z,22.00
2018-11-14T03:59:27.310Z,21.90
2018-11-14T04:01:55.979Z,21.70
2018-11-14T04:04:24.619Z,21.10
2018-11-14T04:06:53.310Z,21.67
2018-11-14T04:09:22.079Z,21.03
2018-11-14T04:11:50.686Z,20.33
2018-11-14T04:14:19.421Z,16.40
2018-11-14T04:16:48.075Z,21.03
2018-11-14T04:19:16.738Z,19.53
2018-11-14T04:21:45.420Z,20.27
2018-11-14T04:24:14.058Z,19.87
2018-11-14T04:26:42.771Z,19.73
2018-11-14T04:29:11.450Z,20.43
2018-11-14T04:31:40.090Z,17.37
2018-11-14T04:34:11.458Z,19.70
2018-11-14T04:36:40.148Z,19.33
2018-11-14T04:39:09.873Z,17.60
2018-11-14T04:41:38.527Z,21.73
2018-11-14T04:44:07.483Z,19.67
2018-11-14T04:46:36.188Z,19.17
2018-11-14T04:49:05.032Z,19.23
2018-11-14T04:51:33.700Z,18.70
2018-11-14T04:54:02.322Z,18.23
2018-11-14T04:56:31.010Z,16.97
2018-11-14T04:58:59.684Z,17.07
2018-11-14T05:01:28.304Z,19.13
2018-11-14T05:03:56.990Z,17.87
2018-11-14T05:06:25.690Z,18.07
2018-11-14T05:08:54.377Z,17.53
2018-11-14T05:11:23.085Z,16.80
2018-11-14T05:13:52.076Z,18.13
2018-11-14T05:16:21.007Z,17.53
2018-11-14T05:18:49.706Z,17.67
2018-11-14T05:21:18.358Z,17.03
2018-11-14T05:23:46.972Z,18.23
2018-11-14T05:26:15.665Z,17.53
2018-11-14T05:28:44.286Z,17.50
2018-11-14T05:31:12.978Z,17.30
2018-11-14T05:33:41.622Z,18.70
2018-11-14T05:36:10.260Z,18.23
2018-11-14T05:38:38.904Z,17.43
2018-11-14T05:41:07.549Z,17.70
2018-11-14T05:43:36.185Z,17.17
2018-11-14T05:46:05.208Z,16.93
2018-11-14T05:48:33.875Z,17.50
2018-11-14T05:51:02.681Z,16.27
2018-11-14T05:53:31.377Z,18.43
2018-11-14T05:56:00.069Z,18.67
2018-11-14T05:58:28.745Z,20.13
2018-11-14T06:00:57.469Z,21.13
2018-11-14T06:03:26.125Z,19.80
2018-11-14T06:05:54.733Z,19.37
2018-11-14T06:08:23.369Z,18.73
2018-11-14T06:10:52.213Z,18.60
2018-11-14T06:13:20.881Z,19.63
2018-11-14T06:15:49.569Z,20.30
2018-11-14T06:18:18.249Z,19.20
2018-11-14T06:20:46.883Z,18.70
2018-11-14T06:23:15.551Z,18.97
2018-11-14T06:25:44.329Z,18.97
2018-11-14T06:28:14.583Z,18.90
2018-11-14T06:30:43.297Z,19.40
2018-11-14T06:33:12.681Z,20.53
2018-11-14T06:35:41.472Z,20.00
2018-11-14T06:38:10.226Z,21.70
2018-11-14T06:40:39.690Z,19.60
2018-11-14T06:43:09.278Z,20.87
2018-11-14T06:45:38.161Z,22.27
2018-11-14T06:48:07.109Z,21.87
2018-11-14T06:50:35.915Z,21.60
2018-11-14T06:53:06.030Z,21.33
2018-11-14T06:55:34.819Z,20.40
2018-11-14T06:58:03.626Z,19.13
2018-11-14T07:00:33.450Z,22.30
2018-11-14T07:03:03.483Z,20.87
2018-11-14T07:05:32.397Z,22.57
2018-11-14T07:08:01.163Z,20.23
2018-11-14T07:10:32.099Z,19.07
2018-11-14T07:13:06.977Z,18.63
2018-11-14T07:15:36.505Z,17.70
2018-11-14T07:18:06.479Z,18.93
2018-11-14T07:20:37.687Z,18.07
2018-11-14T07:23:06.674Z,18.70
2018-11-14T07:25:35.408Z,19.83
2018-11-14T07:28:04.320Z,20.03
2018-11-14T07:30:34.132Z,19.00
2018-11-14T07:33:09.208Z,17.57
2018-11-14T07:35:38.175Z,18.70
2018-11-14T07:38:43.172Z,18.77
2018-11-14T07:41:15.352Z,16.87
2018-11-14T07:43:44.748Z,17.63
2018-11-14T07:46:14.670Z,17.97
2018-11-14T07:48:44.344Z,17.23
2018-11-14T07:51:13.031Z,15.90
2018-11-14T07:53:41.823Z,16.77
2018-11-14T07:56:10.502Z,15.87
2018-11-14T07:58:40.734Z,15.23
2018-11-14T08:01:10.659Z,17.03
2018-11-14T08:03:40.624Z,17.70
2018-11-14T08:06:09.419Z,17.67
2018-11-14T08:08:38.117Z,16.63
2018-11-14T08:11:07.615Z,15.77
2018-11-14T08:13:37.620Z,16.73
2018-11-14T08:16:09.581Z,18.30
2018-11-14T08:18:41.913Z,17.13
2018-11-14T08:21:14.823Z,16.10
2018-11-14T08:23:48.252Z,13.67
2018-11-14T08:26:18.127Z,17.57
2018-11-14T08:28:49.053Z,18.47
2018-11-14T08:31:19.627Z,17.67
2018-11-14T08:33:49.156Z,16.80
2018-11-14T08:36:20.969Z,13.97
2018-11-14T08:38:51.209Z,14.90
2018-11-14T08:41:21.186Z,18.03
2018-11-14T08:43:50.724Z,17.43
2018-11-14T08:46:20.473Z,17.07
2018-11-14T08:48:51.424Z,15.43
2018-11-14T08:51:22.214Z,17.03
2018-11-14T08:53:51.653Z,16.57
2018-11-14T08:56:25.479Z,15.63
2018-11-14T08:58:54.182Z,15.33
2018-11-14T09:01:23.104Z,16.17
2018-11-14T09:04:15.402Z,15.90
2018-11-14T09:06:44.940Z,15.77
2018-11-14T09:09:14.743Z,15.10
2018-11-14T09:11:45.757Z,15.00
2018-11-14T09:14:16.268Z,13.17
2018-11-14T09:16:46.117Z,15.03
2018-11-14T09:19:16.854Z,16.00
2018-11-14T09:21:45.836Z,14.47
2018-11-14T09:24:17.952Z,13.17
2018-11-14T09:26:48.454Z,13.93
2018-11-14T09:29:17.284Z,13.03
2018-11-14T09:31:49.446Z,13.97
2018-11-14T09:34:22.893Z,12.77
2018-11-14T09:36:52.766Z,13.47
2018-11-14T09:39:22.773Z,11.77
2018-11-14T09:41:53.966Z,13.03
2018-11-14T09:44:24.179Z,13.67
2018-11-14T09:46:53.102Z,12.70
2018-11-14T09:49:22.211Z,13.00
2018-11-14T09:51:53.142Z,12.10
2018-11-14T09:54:22.301Z,13.00
2018-11-14T09:56:53.514Z,12.70
2018-11-14T09:59:22.584Z,13.03
2018-11-14T10:01:55.526Z,12.17
2018-11-14T10:04:26.809Z,13.43
2018-11-14T10:06:56.149Z,12.80
2018-11-14T10:09:26.522Z,13.17
2018-11-14T10:11:56.912Z,14.00
2018-11-14T10:14:26.713Z,12.90
2018-11-14T10:16:57.400Z,13.43
2018-11-14T10:19:28.616Z,14.33
2018-11-14T10:21:58.210Z,13.23
2018-11-14T10:24:27.856Z,13.97
2018-11-14T10:26:58.736Z,14.43
2018-11-14T10:29:32.544Z,14.63
2018-11-14T10:32:03.800Z,13.93
2018-11-14T10:34:33.452Z,13.53
2018-11-14T10:37:07.114Z,14.43
2018-11-14T10:39:36.729Z,15.03
2018-11-14T10:42:07.016Z,14.83
2018-11-14T10:47:14.062Z,14.60
2018-11-14T10:49:43.938Z,13.60
2018-11-14T10:52:13.494Z,16.60
2018-11-14T10:54:56.446Z,16.00
2018-11-14T10:57:25.511Z,17.27
2018-11-14T10:59:57.820Z,17.60
2018-11-14T11:02:34.958Z,16.47
2018-11-14T11:05:09.872Z,14.93
2018-11-14T11:07:44.976Z,19.73
2018-11-14T11:10:18.974Z,16.97
2018-11-14T11:12:54.830Z,17.83
2018-11-14T11:15:32.814Z,18.60
2018-11-14T11:18:07.194Z,16.20
2018-11-14T11:20:38.496Z,15.77
2018-11-14T11:23:09.238Z,16.60
2018-11-14T11:25:41.760Z,15.93
2018-11-14T11:28:12.700Z,16.80
2018-11-14T11:30:43.830Z,18.47
2018-11-14T11:33:12.908Z,16.37
2018-11-14T11:35:43.152Z,15.67
2018-11-14T11:38:15.468Z,16.27
2018-11-14T11:40:44.940Z,16.27
2018-11-14T11:43:16.752Z,17.00
2018-11-14T11:45:49.078Z,16.63
2018-11-14T11:48:20.993Z,16.80
2018-11-14T11:50:55.455Z,15.03
2018-11-14T11:53:25.619Z,15.47
2018-11-14T11:55:55.833Z,15.80
2018-11-14T11:58:24.884Z,14.67
2018-11-14T12:00:55.173Z,15.80
2018-11-14T12:03:30.025Z,16.67
2018-11-14T12:06:00.135Z,17.80
2018-11-14T12:08:31.692Z,17.77
2018-11-14T12:11:02.443Z,19.90
2018-11-14T12:13:32.129Z,20.13
2018-11-14T12:16:01.133Z,20.03
2018-11-14T12:18:30.740Z,20.63
2018-11-14T12:20:59.914Z,18.93
2018-11-14T12:23:31.930Z,18.73
2018-11-14T12:26:00.985Z,20.27
2018-11-14T12:28:30.185Z,19.97
2018-11-14T12:30:59.403Z,19.70
2018-11-14T12:33:29.077Z,20.77
2018-11-14T12:35:58.096Z,20.83
2018-11-14T12:38:27.157Z,20.37
2018-11-14T12:40:57.454Z,21.20
2018-11-14T12:43:28.717Z,19.77
2018-11-14T12:45:59.499Z,20.97
2018-11-14T12:48:29.251Z,18.80
2018-11-14T12:50:59.796Z,19.97
2018-11-14T12:53:29.955Z,20.83
2018-11-14T12:56:00.075Z,20.00
2018-11-14T12:58:30.409Z,21.07
2018-11-14T13:01:00.006Z,22.93
2018-11-14T13:03:30.041Z,23.73
2018-11-14T13:06:02.155Z,22.77
2018-11-14T13:08:32.048Z,22.63
2018-11-14T13:11:03.603Z,22.77
2018-11-14T13:13:39.351Z,23.23
2018-11-14T13:16:08.490Z,22.73
2018-11-14T13:18:38.185Z,22.97
2018-11-14T13:21:07.836Z,24.97
2018-11-14T13:23:36.935Z,23.00
2018-11-14T13:26:08.245Z,24.00
2018-11-14T13:28:44.380Z,23.60
2018-11-14T13:31:13.457Z,23.20
2018-11-14T13:33:43.996Z,22.03
2018-11-14T13:36:13.861Z,19.37
2018-11-14T13:38:43.440Z,20.07
2018-11-14T13:41:13.508Z,18.63
2018-11-14T13:43:43.153Z,20.23
2018-11-14T13:46:12.962Z,20.63
2018-11-14T13:48:45.473Z,22.17
2018-11-14T13:51:17.712Z,21.60
2018-11-14T13:53:48.927Z,22.47
2018-11-14T13:56:22.849Z,23.20
2018-11-14T13:58:57.580Z,23.47
2018-11-14T14:01:38.103Z,25.37
2018-11-14T14:04:11.189Z,23.80
2018-11-14T14:06:42.377Z,25.43
2018-11-14T14:09:13.161Z,26.23
2018-11-14T14:11:42.743Z,26.30
2018-11-14T14:14:16.731Z,24.57
2018-11-14T14:16:46.000Z,23.50
2018-11-14T14:19:16.782Z,33.58
2018-11-14T14:21:45.596Z,27.80
2018-11-14T14:24:15.298Z,28.37
2018-11-14T14:26:44.067Z,28.67
2018-11-14T14:29:13.776Z,27.67
2018-11-14T14:31:42.559Z,27.63
2018-11-14T14:34:11.333Z,26.37
2018-11-14T14:36:40.087Z,28.07
2018-11-14T14:39:10.168Z,27.37
2018-11-14T14:41:38.924Z,25.33
2018-11-14T14:44:07.675Z,22.83
2018-11-14T14:46:36.521Z,22.90
2018-11-14T14:49:05.395Z,21.63
2018-11-14T14:51:34.117Z,22.53
2018-11-14T14:54:02.892Z,24.53
2018-11-14T14:56:31.907Z,24.80
2018-11-14T14:59:00.556Z,25.60
2018-11-14T15:01:29.325Z,27.57
2018-11-14T15:03:58.180Z,25.47
2018-11-14T15:06:26.913Z,26.10
2018-11-14T15:08:55.580Z,26.07
2018-11-14T15:11:24.845Z,23.97
2018-11-14T15:13:53.574Z,25.53
2018-11-14T15:16:22.304Z,31.33
2018-11-14T15:18:51.068Z,26.00
2018-11-14T15:21:19.841Z,26.73
2018-11-14T15:23:48.578Z,27.50
2018-11-14T15:26:17.545Z,26.87
2018-11-14T15:28:46.424Z,25.13
2018-11-14T15:31:15.099Z,26.40
2018-11-14T15:33:43.885Z,25.87
2018-11-14T15:36:12.648Z,26.37
2018-11-14T15:38:41.401Z,27.57
2018-11-14T15:41:10.193Z,28.17
2018-11-14T15:43:39.862Z,34.47
2018-11-14T15:46:08.675Z,31.03
2018-11-14T15:48:38.558Z,30.10
2018-11-14T15:51:07.309Z,31.07
2018-11-14T15:53:36.145Z,29.13
2018-11-14T15:56:05.067Z,32.77
2018-11-14T15:58:34.050Z,30.80
2018-11-14T16:01:02.929Z,25.60
2018-11-14T16:03:31.782Z,25.57
2018-11-14T16:06:00.600Z,27.23
2018-11-14T16:08:29.380Z,26.47
2018-11-14T16:10:58.543Z,25.83
2018-11-14T16:13:27.452Z,25.90
2018-11-14T16:15:57.070Z,26.73
2018-11-14T16:18:25.949Z,27.40
2018-11-14T16:20:54.751Z,22.17
2018-11-14T16:23:23.612Z,24.77
2018-11-14T16:25:52.529Z,26.30
2018-11-14T16:28:21.318Z,25.43
2018-11-14T16:30:50.198Z,23.87
2018-11-14T16:33:19.091Z,23.13
2018-11-14T16:35:47.812Z,23.83
2018-11-14T16:38:16.657Z,22.70
2018-11-14T16:40:45.399Z,21.07
2018-11-14T16:43:14.310Z,19.20
2018-11-14T16:45:43.699Z,19.73
2018-11-14T16:48:12.546Z,19.83
2018-11-14T16:50:41.369Z,20.40
2018-11-14T16:53:10.198Z,21.33
2018-11-14T16:55:39.128Z,19.80
2018-11-14T16:58:07.878Z,22.33
2018-11-14T17:00:36.864Z,24.27
2018-11-14T17:03:05.756Z,22.93
2018-11-14T17:05:34.621Z,22.37
2018-11-14T17:08:04.315Z,22.73
2018-11-14T17:10:33.062Z,23.57
2018-11-14T17:13:02.370Z,23.73
2018-11-14T17:15:31.167Z,23.63
2018-11-14T17:18:00.843Z,23.73
2018-11-14T17:20:29.714Z,28.73
2018-11-14T17:22:58.598Z,24.27
2018-11-14T17:25:27.448Z,24.03
2018-11-14T17:27:56.266Z,22.53
2018-11-14T17:30:27.266Z,27.70
2018-11-14T17:32:56.864Z,31.97
2018-11-14T17:35:25.699Z,28.27
2018-11-14T17:37:54.528Z,25.50
2018-11-14T17:40:26.413Z,26.93
2018-11-14T17:42:55.431Z,23.63
2018-11-14T17:45:28.073Z,23.53
2018-11-14T17:47:57.564Z,29.03
2018-11-14T17:50:28.772Z,29.10
2018-11-14T17:52:58.507Z,48.27
2018-11-14T17:55:27.372Z,29.47
2018-11-14T17:57:56.801Z,43.17
2018-11-14T18:00:26.923Z,34.67
2018-11-14T18:02:56.429Z,36.87
2018-11-14T18:05:26.404Z,30.60
2018-11-14T18:07:55.580Z,27.83
2018-11-14T18:10:25.618Z,25.43
2018-11-14T18:12:55.543Z,24.63
2018-11-14T18:15:24.376Z,25.67
2018-11-14T18:17:53.928Z,25.73
2018-11-14T18:20:25.071Z,27.47
2018-11-14T18:22:54.475Z,24.70
2018-11-14T18:25:23.342Z,24.33
2018-11-14T18:27:52.999Z,24.40
2018-11-14T18:30:24.699Z,26.27
2018-11-14T18:32:55.267Z,25.43
2018-11-14T18:35:24.614Z,24.87
2018-11-14T18:37:55.177Z,25.83
2018-11-14T18:40:25.370Z,24.87
2018-11-14T18:42:54.455Z,26.87
2018-11-14T18:45:25.823Z,25.20
2018-11-14T18:47:55.515Z,28.33
2018-11-14T18:50:24.973Z,28.70
2018-11-14T18:52:53.895Z,26.47
2018-11-14T18:55:23.897Z,26.00
2018-11-14T18:57:52.796Z,27.87
2018-11-14T19:00:23.134Z,26.37
2018-11-14T19:02:52.015Z,27.47
2018-11-14T19:05:21.127Z,26.60
2018-11-14T19:07:50.602Z,28.17
2018-11-14T19:10:21.225Z,26.53
2018-11-14T19:12:50.705Z,27.80
2018-11-14T19:15:20.866Z,25.00
2018-11-14T19:17:49.650Z,23.13
2018-11-14T19:20:20.080Z,25.80
2018-11-14T19:22:49.027Z,23.63
2018-11-14T19:25:19.582Z,22.73
2018-11-14T19:27:48.845Z,23.17
2018-11-14T19:30:19.120Z,23.73
2018-11-14T19:32:49.165Z,24.80
2018-11-14T19:35:18.169Z,24.13
2018-11-14T19:37:48.214Z,24.03
2018-11-14T19:40:18.986Z,24.67
2018-11-14T19:42:48.807Z,24.43
2018-11-14T19:45:19.348Z,25.33
2018-11-14T19:47:48.265Z,26.13
2018-11-14T19:50:19.498Z,37.40
2018-11-14T19:52:48.566Z,27.40
2018-11-14T19:55:18.811Z,26.13
2018-11-14T19:57:48.334Z,27.33
2018-11-14T20:00:20.629Z,27.73
2018-11-14T20:02:49.419Z,26.00
2018-11-14T20:05:18.836Z,23.03
2018-11-14T20:07:47.574Z,24.73
2018-11-14T20:10:20.717Z,23.20
2018-11-14T20:12:50.090Z,23.40
2018-11-14T20:15:36.524Z,23.20
2018-11-14T20:18:05.840Z,22.33
2018-11-14T20:20:36.136Z,21.13
2018-11-14T20:23:05.154Z,21.37
2018-11-14T20:25:34.216Z,21.23
2018-11-14T20:28:03.519Z,20.53
2018-11-14T20:30:33.860Z,21.20
2018-11-14T20:33:04.201Z,20.53
2018-11-14T20:35:33.829Z,20.87
2018-11-14T20:38:02.657Z,22.47
2018-11-14T20:40:32.999Z,22.27
2018-11-14T20:43:02.042Z,20.60
2018-11-14T20:45:32.236Z,21.33
2018-11-14T20:48:01.023Z,21.77
2018-11-14T20:50:29.833Z,20.00
2018-11-14T20:53:01.249Z,20.03
2018-11-14T20:55:30.416Z,20.53
2018-11-14T20:57:59.409Z,22.07
2018-11-14T21:00:29.642Z,20.03
2018-11-14T21:02:58.478Z,18.67
2018-11-14T21:05:28.046Z,20.47
2018-11-14T21:07:56.963Z,21.00
2018-11-14T21:10:27.133Z,24.07
2018-11-14T21:12:56.116Z,25.13
2018-11-14T21:15:26.262Z,25.37
2018-11-14T21:17:55.773Z,26.87
2018-11-14T21:20:24.490Z,24.93
2018-11-14T21:22:53.230Z,26.90
2018-11-14T21:25:23.009Z,28.57
2018-11-14T21:27:52.323Z,25.03
2018-11-14T21:30:22.364Z,28.93
2018-11-14T21:32:51.098Z,27.93
2018-11-14T21:35:22.519Z,25.27
2018-11-14T21:37:52.543Z,26.00
2018-11-14T21:40:21.352Z,26.73
2018-11-14T21:42:50.159Z,25.63
2018-11-14T21:45:20.214Z,26.03
2018-11-14T21:47:54.912Z,23.13
2018-11-14T21:50:24.851Z,24.03
2018-11-14T21:52:53.560Z,25.00
2018-11-14T21:55:22.290Z,24.03
2018-11-14T21:57:51.048Z,22.70
2018-11-14T22:00:21.049Z,22.97
2018-11-14T22:02:51.203Z,23.43
2018-11-14T22:05:19.888Z,22.83
2018-11-14T22:07:48.879Z,21.77
2018-11-14T22:10:18.864Z,24.43
2018-11-14T22:12:48.017Z,25.20
2018-11-14T22:15:18.373Z,23.93
2018-11-14T22:17:47.637Z,26.00
2018-11-14T22:20:17.660Z,27.27
2018-11-14T22:22:46.889Z,24.90
2018-11-14T22:25:17.020Z,24.80
2018-11-14T22:27:45.820Z,24.83
2018-11-14T22:30:17.970Z,23.80
2018-11-14T22:32:46.764Z,25.63
2018-11-14T22:35:16.725Z,25.03
2018-11-14T22:37:45.407Z,23.53
2018-11-14T22:40:15.891Z,23.13
2018-11-14T22:42:45.107Z,23.63
2018-11-14T22:45:16.055Z,21.93
2018-11-14T22:47:45.171Z,23.30
2018-11-14T22:50:15.249Z,21.90
2018-11-14T22:52:44.619Z,22.77
2018-11-14T22:55:14.487Z,21.93
2018-11-14T22:57:43.815Z,21.93
2018-11-14T23:00:22.240Z,22.53
2018-11-14T23:02:52.166Z,21.07
2018-11-14T23:05:20.995Z,21.43
2018-11-14T23:07:51.103Z,21.13
2018-11-14T23:10:20.764Z,20.40
2018-11-14T23:12:49.872Z,19.67
2018-11-14T23:15:19.466Z,18.60
2018-11-14T23:17:48.300Z,19.83
2018-11-14T23:20:17.451Z,18.77
2018-11-14T23:22:47.063Z,18.43
2018-11-14T23:25:16.179Z,18.63
2018-11-14T23:27:47.066Z,18.60
2018-11-14T23:30:16.848Z,18.33
2018-11-14T23:32:46.821Z,19.53
2018-11-14T23:35:16.425Z,20.00
2018-11-14T23:37:46.969Z,18.73
2018-11-14T23:40:15.706Z,18.20
2018-11-14T23:42:44.473Z,20.63
2018-11-14T23:45:14.440Z,21.40
2018-11-14T23:47:43.975Z,21.87
2018-11-14T23:50:15.604Z,21.00
2018-11-14T23:52:45.262Z,22.90
2018-11-14T23:55:14.506Z,21.80
2018-11-14T23:57:43.196Z,24.17
